sensor_id;sensor_type;location;lat;lon;timestamp;pressure;altitude;pressure_sealevel;temperature;humidity
20444;BME280;10381;53.730;10.010;2024-03-07T00:03:52;102251.31;;;3.15;100.00
20444;BME280;10381;53.730;10.010;2024-03-07T00:07:53;102245.19;;;3.15;100.00
20444;BME280;10381;53.730;10.010;2024-03-07T00:11:54;102249.41;;;3.20;100.00
20444;BME280;10381;53.730;10.010;2024-03-07T00:15:54;102263.19;;;3.26;100.00
20444;BME280;10381;53.730;10.010;2024-03-07T00:19:55;102263.16;;;3.27;100.00
20444;BME280;10381;53.730;10.010;2024-03-07T00:23:56;102253.44;;;3.29;100.00
20444;BME280;10381;53.730;10.010;2024-03-07T00:27:57;102246.56;;;3.27;100.00
20444;BME280;10381;53.730;10.010;2024-03-07T00:32:02;102261.31;;;3.29;100.00
20444;BME280;10381;53.730;10.010;2024-03-07T00:36:03;102256.88;;;3.31;100.00
20444;BME280;10381;53.730;10.010;2024-03-07T00:40:04;102255.88;;;3.35;100.00
20444;BME280;10381;53.730;10.010;2024-03-07T00:44:05;102252.28;;;3.38;100.00
20444;BME280;10381;53.730;10.010;2024-03-07T00:48:08;102247.97;;;3.37;100.00
20444;BME280;10381;53.730;10.010;2024-03-07T00:52:11;102252.41;;;3.35;100.00
20444;BME280;10381;53.730;10.010;2024-03-07T00:56:11;102240.19;;;3.34;100.00
20444;BME280;10381;53.730;10.010;2024-03-07T01:00:12;102244.63;;;3.32;100.00
20444;BME280;10381;53.730;10.010;2024-03-07T01:04:14;102228.75;;;3.36;100.00
20444;BME280;10381;53.730;10.010;2024-03-07T01:08:14;102230.47;;;3.37;100.00
20444;BME280;10381;53.730;10.010;2024-03-07T01:12:14;102225.28;;;3.36;100.00
20444;BME280;10381;53.730;10.010;2024-03-07T01:16:14;102227.78;;;3.39;100.00
20444;BME280;10381;53.730;10.010;2024-03-07T01:20:15;102237.28;;;3.41;100.00
20444;BME280;10381;53.730;10.010;2024-03-07T01:24:15;102234.94;;;3.34;100.00
20444;BME280;10381;53.730;10.010;2024-03-07T01:28:20;102233.13;;;3.36;100.00
20444;BME280;10381;53.730;10.010;2024-03-07T01:32:22;102232.44;;;3.31;100.00
20444;BME280;10381;53.730;10.010;2024-03-07T01:36:22;102232.50;;;3.29;100.00
20444;BME280;10381;53.730;10.010;2024-03-07T01:40:23;102236.72;;;3.33;100.00
20444;BME280;10381;53.730;10.010;2024-03-07T01:44:23;102242.94;;;3.31;100.00
20444;BME280;10381;53.730;10.010;2024-03-07T01:48:26;102238.66;;;3.28;100.00
20444;BME280;10381;53.730;10.010;2024-03-07T01:52:26;102243.72;;;3.33;100.00
20444;BME280;10381;53.730;10.010;2024-03-07T01:56:26;102238.44;;;3.34;100.00
20444;BME280;10381;53.730;10.010;2024-03-07T02:00:27;102242.88;;;3.32;100.00
20444;BME280;10381;53.730;10.010;2024-03-07T02:04:28;102241.31;;;3.27;100.00
20444;BME280;10381;53.730;10.010;2024-03-07T02:08:28;102240.56;;;3.23;100.00
20444;BME280;10381;53.730;10.010;2024-03-07T02:12:29;102242.50;;;3.18;100.00
20444;BME280;10381;53.730;10.010;2024-03-07T02:16:30;102243.13;;;3.25;100.00
20444;BME280;10381;53.730;10.010;2024-03-07T02:20:31;102238.00;;;3.22;100.00
20444;BME280;10381;53.730;10.010;2024-03-07T02:24:31;102239.19;;;3.13;100.00
20444;BME280;10381;53.730;10.010;2024-03-07T02:28:32;102242.53;;;3.16;100.00
20444;BME280;10381;53.730;10.010;2024-03-07T02:32:32;102245.94;;;3.20;100.00
20444;BME280;10381;53.730;10.010;2024-03-07T02:36:33;102254.66;;;3.19;100.00
20444;BME280;10381;53.730;10.010;2024-03-07T02:40:33;102266.16;;;3.15;100.00
20444;BME280;10381;53.730;10.010;2024-03-07T02:44:34;102268.84;;;3.13;100.00
20444;BME280;10381;53.730;10.010;2024-03-07T02:48:34;102282.81;;;3.12;100.00
20444;BME280;10381;53.730;10.010;2024-03-07T02:52:35;102291.72;;;3.08;100.00
20444;BME280;10381;53.730;10.010;2024-03-07T02:56:35;102294.38;;;3.07;100.00
20444;BME280;10381;53.730;10.010;2024-03-07T03:00:35;102291.00;;;3.03;100.00
20444;BME280;10381;53.730;10.010;2024-03-07T03:04:36;102300.66;;;3.01;100.00
20444;BME280;10381;53.730;10.010;2024-03-07T03:08:37;102298.91;;;3.02;100.00
20444;BME280;10381;53.730;10.010;2024-03-07T03:12:37;102299.09;;;2.95;100.00
20444;BME280;10381;53.730;10.010;2024-03-07T03:16:41;102313.13;;;2.93;100.00
20444;BME280;10381;53.730;10.010;2024-03-07T03:20:42;102320.28;;;2.88;100.00
20444;BME280;10381;53.730;10.010;2024-03-07T03:24:43;102325.59;;;2.86;100.00
20444;BME280;10381;53.730;10.010;2024-03-07T03:28:44;102324.34;;;2.70;100.00
20444;BME280;10381;53.730;10.010;2024-03-07T03:32:46;102327.78;;;2.72;100.00
20444;BME280;10381;53.730;10.010;2024-03-07T03:36:46;102341.13;;;2.63;100.00
20444;BME280;10381;53.730;10.010;2024-03-07T03:40:47;102354.47;;;2.53;100.00
20444;BME280;10381;53.730;10.010;2024-03-07T03:44:47;102370.53;;;2.41;100.00
20444;BME280;10381;53.730;10.010;2024-03-07T03:48:48;102379.47;;;2.34;100.00
20444;BME280;10381;53.730;10.010;2024-03-07T03:52:50;102400.53;;;2.28;100.00
20444;BME280;10381;53.730;10.010;2024-03-07T03:56:51;102386.84;;;2.20;100.00
20444;BME280;10381;53.730;10.010;2024-03-07T04:00:51;102404.41;;;2.15;100.00
20444;BME280;10381;53.730;10.010;2024-03-07T04:04:52;102408.22;;;2.01;100.00
20444;BME280;10381;53.730;10.010;2024-03-07T04:08:52;102413.66;;;1.95;100.00
20444;BME280;10381;53.730;10.010;2024-03-07T04:12:55;102414.59;;;1.92;100.00
20444;BME280;10381;53.730;10.010;2024-03-07T04:16:55;102411.91;;;1.94;100.00
20444;BME280;10381;53.730;10.010;2024-03-07T04:20:56;102412.09;;;1.88;100.00
20444;BME280;10381;53.730;10.010;2024-03-07T04:24:57;102417.34;;;1.86;100.00
20444;BME280;10381;53.730;10.010;2024-03-07T04:28:57;102422.59;;;1.85;100.00
20444;BME280;10381;53.730;10.010;2024-03-07T04:32:58;102407.94;;;1.79;100.00
20444;BME280;10381;53.730;10.010;2024-03-07T04:36:59;102426.44;;;1.72;100.00
20444;BME280;10381;53.730;10.010;2024-03-07T04:41:01;102425.59;;;1.69;100.00
20444;BME280;10381;53.730;10.010;2024-03-07T04:45:02;102438.19;;;1.54;100.00
20444;BME280;10381;53.730;10.010;2024-03-07T04:49:02;102438.97;;;1.57;100.00
20444;BME280;10381;53.730;10.010;2024-03-07T04:53:03;102432.84;;;1.58;100.00
20444;BME280;10381;53.730;10.010;2024-03-07T04:57:03;102441.38;;;1.66;100.00
20444;BME280;10381;53.730;10.010;2024-03-07T05:01:04;102434.50;;;1.62;100.00
20444;BME280;10381;53.730;10.010;2024-03-07T05:05:05;102442.25;;;1.65;100.00
20444;BME280;10381;53.730;10.010;2024-03-07T05:09:07;102436.88;;;1.72;100.00
20444;BME280;10381;53.730;10.010;2024-03-07T05:13:08;102435.16;;;1.70;100.00
20444;BME280;10381;53.730;10.010;2024-03-07T05:17:09;102433.41;;;1.71;100.00
20444;BME280;10381;53.730;10.010;2024-03-07T05:21:09;102443.25;;;1.61;100.00
20444;BME280;10381;53.730;10.010;2024-03-07T05:25:28;102440.63;;;1.61;100.00
20444;BME280;10381;53.730;10.010;2024-03-07T05:29:28;102447.63;;;1.59;100.00
20444;BME280;10381;53.730;10.010;2024-03-07T05:33:28;102452.13;;;1.54;100.00
20444;BME280;10381;53.730;10.010;2024-03-07T05:37:29;102453.69;;;1.61;100.00
20444;BME280;10381;53.730;10.010;2024-03-07T05:41:29;102458.84;;;1.64;100.00
20444;BME280;10381;53.730;10.010;2024-03-07T05:45:29;102470.13;;;1.65;100.00
20444;BME280;10381;53.730;10.010;2024-03-07T05:49:29;102476.28;;;1.62;100.00
20444;BME280;10381;53.730;10.010;2024-03-07T05:53:31;102477.00;;;1.69;100.00
20444;BME280;10381;53.730;10.010;2024-03-07T05:57:31;102484.22;;;1.59;100.00
20444;BME280;10381;53.730;10.010;2024-03-07T06:01:31;102482.34;;;1.64;100.00
20444;BME280;10381;53.730;10.010;2024-03-07T06:05:33;102485.78;;;1.66;100.00
20444;BME280;10381;53.730;10.010;2024-03-07T06:09:33;102490.13;;;1.66;100.00
20444;BME280;10381;53.730;10.010;2024-03-07T06:13:33;102489.91;;;1.75;100.00
20444;BME280;10381;53.730;10.010;2024-03-07T06:17:33;102488.22;;;1.73;100.00
20444;BME280;10381;53.730;10.010;2024-03-07T06:21:35;102496.38;;;1.60;100.00
20444;BME280;10381;53.730;10.010;2024-03-07T06:25:36;102499.19;;;1.51;100.00
20444;BME280;10381;53.730;10.010;2024-03-07T06:29:52;102511.28;;;1.55;100.00
20444;BME280;10381;53.730;10.010;2024-03-07T06:33:53;102522.28;;;1.69;100.00
20444;BME280;10381;53.730;10.010;2024-03-07T06:37:53;102516.31;;;1.64;100.00
20444;BME280;10381;53.730;10.010;2024-03-07T06:41:54;102523.84;;;1.77;100.00
20444;BME280;10381;53.730;10.010;2024-03-07T06:45:54;102530.75;;;1.81;100.00
20444;BME280;10381;53.730;10.010;2024-03-07T06:49:54;102534.03;;;1.87;100.00
20444;BME280;10381;53.730;10.010;2024-03-07T06:53:56;102545.94;;;2.01;100.00
20444;BME280;10381;53.730;10.010;2024-03-07T06:57:56;102549.72;;;1.87;100.00
20444;BME280;10381;53.730;10.010;2024-03-07T07:01:57;102555.66;;;1.96;100.00
20444;BME280;10381;53.730;10.010;2024-03-07T07:05:58;102555.44;;;2.05;100.00
20444;BME280;10381;53.730;10.010;2024-03-07T07:09:59;102562.13;;;2.15;100.00
20444;BME280;10381;53.730;10.010;2024-03-07T07:13:59;102568.31;;;2.12;100.00
20444;BME280;10381;53.730;10.010;2024-03-07T07:17:59;102571.78;;;2.11;100.00
20444;BME280;10381;53.730;10.010;2024-03-07T07:22:02;102570.81;;;2.17;100.00
20444;BME280;10381;53.730;10.010;2024-03-07T07:26:02;102584.72;;;2.19;100.00
20444;BME280;10381;53.730;10.010;2024-03-07T07:30:03;102585.97;;;2.39;100.00
20444;BME280;10381;53.730;10.010;2024-03-07T07:34:03;102584.09;;;2.44;100.00
20444;BME280;10381;53.730;10.010;2024-03-07T07:38:04;102593.38;;;2.55;100.00
20444;BME280;10381;53.730;10.010;2024-03-07T07:42:07;102595.09;;;2.56;100.00
20444;BME280;10381;53.730;10.010;2024-03-07T07:46:09;102599.50;;;2.54;100.00
20444;BME280;10381;53.730;10.010;2024-03-07T07:50:11;102596.56;;;2.67;100.00
20444;BME280;10381;53.730;10.010;2024-03-07T07:54:17;102596.41;;;2.73;100.00
20444;BME280;10381;53.730;10.010;2024-03-07T07:58:17;102601.22;;;2.88;100.00
20444;BME280;10381;53.730;10.010;2024-03-07T08:02:18;102603.31;;;2.77;100.00
20444;BME280;10381;53.730;10.010;2024-03-07T08:06:18;102603.94;;;2.85;100.00
20444;BME280;10381;53.730;10.010;2024-03-07T08:10:19;102608.19;;;2.89;100.00
20444;BME280;10381;53.730;10.010;2024-03-07T08:14:20;102604.28;;;3.06;100.00
20444;BME280;10381;53.730;10.010;2024-03-07T08:18:22;102603.94;;;3.18;100.00
20444;BME280;10381;53.730;10.010;2024-03-07T08:22:22;102614.22;;;3.24;100.00
20444;BME280;10381;53.730;10.010;2024-03-07T08:26:22;102612.84;;;3.42;100.00
20444;BME280;10381;53.730;10.010;2024-03-07T08:30:23;102618.13;;;3.40;100.00
20444;BME280;10381;53.730;10.010;2024-03-07T08:34:24;102620.00;;;3.35;100.00
20444;BME280;10381;53.730;10.010;2024-03-07T08:38:24;102621.09;;;3.28;100.00
20444;BME280;10381;53.730;10.010;2024-03-07T08:42:25;102617.28;;;3.38;100.00
20444;BME280;10381;53.730;10.010;2024-03-07T08:46:25;102618.16;;;3.08;100.00
20444;BME280;10381;53.730;10.010;2024-03-07T08:50:27;102617.28;;;3.09;100.00
20444;BME280;10381;53.730;10.010;2024-03-07T08:54:28;102603.56;;;3.30;100.00
20444;BME280;10381;53.730;10.010;2024-03-07T08:58:28;102611.44;;;2.99;100.00
20444;BME280;10381;53.730;10.010;2024-03-07T09:02:28;102610.34;;;3.06;100.00
20444;BME280;10381;53.730;10.010;2024-03-07T09:06:28;102623.47;;;3.05;100.00
20444;BME280;10381;53.730;10.010;2024-03-07T09:10:29;102629.22;;;3.49;100.00
20444;BME280;10381;53.730;10.010;2024-03-07T09:14:29;102639.16;;;3.37;100.00
20444;BME280;10381;53.730;10.010;2024-03-07T09:18:30;102639.06;;;3.70;100.00
20444;BME280;10381;53.730;10.010;2024-03-07T09:22:30;102651.72;;;3.25;100.00
20444;BME280;10381;53.730;10.010;2024-03-07T09:26:37;102640.75;;;3.12;100.00
20444;BME280;10381;53.730;10.010;2024-03-07T09:30:38;102626.16;;;2.70;100.00
20444;BME280;10381;53.730;10.010;2024-03-07T09:34:39;102610.66;;;2.63;100.00
20444;BME280;10381;53.730;10.010;2024-03-07T09:38:40;102594.03;;;2.64;100.00
20444;BME280;10381;53.730;10.010;2024-03-07T09:42:48;102591.28;;;2.70;100.00
20444;BME280;10381;53.730;10.010;2024-03-07T09:46:54;102590.69;;;2.59;100.00
20444;BME280;10381;53.730;10.010;2024-03-07T09:50:58;102575.00;;;2.59;100.00
20444;BME280;10381;53.730;10.010;2024-03-07T09:54:59;102573.22;;;2.59;100.00
20444;BME280;10381;53.730;10.010;2024-03-07T09:59:00;102567.94;;;2.62;100.00
20444;BME280;10381;53.730;10.010;2024-03-07T10:03:08;102560.50;;;2.78;100.00
20444;BME280;10381;53.730;10.010;2024-03-07T10:07:09;102544.91;;;2.75;100.00
20444;BME280;10381;53.730;10.010;2024-03-07T10:11:14;102538.84;;;2.73;100.00
20444;BME280;10381;53.730;10.010;2024-03-07T10:15:15;102529.31;;;3.02;100.00
20444;BME280;10381;53.730;10.010;2024-03-07T10:19:17;102535.56;;;3.27;100.00
20444;BME280;10381;53.730;10.010;2024-03-07T10:23:21;102535.72;;;3.21;100.00
20444;BME280;10381;53.730;10.010;2024-03-07T10:27:22;102535.19;;;3.39;100.00
20444;BME280;10381;53.730;10.010;2024-03-07T10:31:32;102544.09;;;3.62;100.00
20444;BME280;10381;53.730;10.010;2024-03-07T10:35:32;102540.88;;;3.54;100.00
20444;BME280;10381;53.730;10.010;2024-03-07T10:39:32;102541.75;;;3.53;100.00
20444;BME280;10381;53.730;10.010;2024-03-07T10:43:37;102541.47;;;3.90;100.00
20444;BME280;10381;53.730;10.010;2024-03-07T10:47:40;102547.97;;;4.05;100.00
20444;BME280;10381;53.730;10.010;2024-03-07T10:51:46;102555.03;;;4.80;100.00
20444;BME280;10381;53.730;10.010;2024-03-07T11:00:02;102567.22;;;4.57;100.00
20444;BME280;10381;53.730;10.010;2024-03-07T11:04:12;102575.25;;;5.03;100.00
20444;BME280;10381;53.730;10.010;2024-03-07T11:08:15;102577.94;;;5.25;100.00
20444;BME280;10381;53.730;10.010;2024-03-07T11:12:16;102577.44;;;4.90;100.00
20444;BME280;10381;53.730;10.010;2024-03-07T11:16:17;102567.06;;;5.10;100.00
20444;BME280;10381;53.730;10.010;2024-03-07T11:20:31;102567.97;;;5.33;100.00
20444;BME280;10381;53.730;10.010;2024-03-07T11:24:34;102579.50;;;5.29;100.00
20444;BME280;10381;53.730;10.010;2024-03-07T11:28:36;102580.19;;;5.80;100.00
20444;BME280;10381;53.730;10.010;2024-03-07T11:32:39;102585.81;;;5.25;100.00
20444;BME280;10381;53.730;10.010;2024-03-07T11:36:41;102575.63;;;5.16;100.00
20444;BME280;10381;53.730;10.010;2024-03-07T11:40:43;102574.31;;;5.27;100.00
20444;BME280;10381;53.730;10.010;2024-03-07T11:44:43;102556.06;;;5.24;100.00
20444;BME280;10381;53.730;10.010;2024-03-07T11:48:45;102556.78;;;5.28;100.00
20444;BME280;10381;53.730;10.010;2024-03-07T11:52:45;102565.78;;;5.68;100.00
20444;BME280;10381;53.730;10.010;2024-03-07T11:56:46;102563.69;;;5.54;100.00
20444;BME280;10381;53.730;10.010;2024-03-07T12:00:48;102561.09;;;5.52;100.00
20444;BME280;10381;53.730;10.010;2024-03-07T12:04:48;102549.06;;;5.23;100.00
20444;BME280;10381;53.730;10.010;2024-03-07T12:08:49;102543.84;;;5.45;100.00
20444;BME280;10381;53.730;10.010;2024-03-07T12:12:50;102537.25;;;5.79;100.00
20444;BME280;10381;53.730;10.010;2024-03-07T12:16:50;102538.22;;;5.54;100.00
20444;BME280;10381;53.730;10.010;2024-03-07T12:20:52;102535.28;;;5.40;100.00
20444;BME280;10381;53.730;10.010;2024-03-07T12:25:02;102520.25;;;5.44;100.00
20444;BME280;10381;53.730;10.010;2024-03-07T12:29:10;102517.91;;;5.36;100.00
20444;BME280;10381;53.730;10.010;2024-03-07T12:33:16;102515.03;;;5.20;100.00
20444;BME280;10381;53.730;10.010;2024-03-07T12:37:17;102499.34;;;5.41;100.00
20444;BME280;10381;53.730;10.010;2024-03-07T12:41:17;102497.81;;;5.35;100.00
20444;BME280;10381;53.730;10.010;2024-03-07T12:45:18;102489.63;;;5.43;100.00
20444;BME280;10381;53.730;10.010;2024-03-07T12:49:18;102497.25;;;5.93;100.00
20444;BME280;10381;53.730;10.010;2024-03-07T12:53:20;102503.50;;;5.90;100.00
20444;BME280;10381;53.730;10.010;2024-03-07T12:57:22;102513.84;;;5.95;100.00
20444;BME280;10381;53.730;10.010;2024-03-07T13:01:23;102513.22;;;5.88;100.00
20444;BME280;10381;53.730;10.010;2024-03-07T13:05:23;102509.97;;;6.04;100.00
20444;BME280;10381;53.730;10.010;2024-03-07T13:09:26;102503.81;;;5.83;100.00
20444;BME280;10381;53.730;10.010;2024-03-07T13:13:30;102498.72;;;5.78;100.00
20444;BME280;10381;53.730;10.010;2024-03-07T13:17:31;102501.84;;;6.30;100.00
20444;BME280;10381;53.730;10.010;2024-03-07T13:21:31;102494.53;;;6.37;100.00
20444;BME280;10381;53.730;10.010;2024-03-07T13:25:32;102497.69;;;6.25;100.00
20444;BME280;10381;53.730;10.010;2024-03-07T13:29:35;102497.06;;;6.40;100.00
20444;BME280;10381;53.730;10.010;2024-03-07T13:33:35;102486.53;;;6.59;100.00
20444;BME280;10381;53.730;10.010;2024-03-07T13:37:37;102495.66;;;6.52;100.00
20444;BME280;10381;53.730;10.010;2024-03-07T13:41:38;102490.00;;;6.80;100.00
20444;BME280;10381;53.730;10.010;2024-03-07T13:45:38;102491.56;;;6.24;100.00
20444;BME280;10381;53.730;10.010;2024-03-07T13:49:43;102470.06;;;6.14;100.00
20444;BME280;10381;53.730;10.010;2024-03-07T13:53:44;102474.69;;;5.87;100.00
20444;BME280;10381;53.730;10.010;2024-03-07T13:57:51;102480.25;;;6.43;100.00
20444;BME280;10381;53.730;10.010;2024-03-07T14:02:40;102483.75;;;6.23;100.00
20444;BME280;10381;53.730;10.010;2024-03-07T14:11:13;102483.47;;;6.89;100.00
20444;BME280;10381;53.730;10.010;2024-03-07T14:15:42;102480.91;;;7.06;100.00
20444;BME280;10381;53.730;10.010;2024-03-07T14:24:37;102475.72;;;6.86;100.00
20444;BME280;10381;53.730;10.010;2024-03-07T14:29:00;102476.13;;;7.14;100.00
20444;BME280;10381;53.730;10.010;2024-03-07T14:33:04;102469.78;;;7.37;100.00
20444;BME280;10381;53.730;10.010;2024-03-07T14:37:11;102477.84;;;7.71;100.00
20444;BME280;10381;53.730;10.010;2024-03-07T14:41:18;102455.66;;;7.75;100.00
20444;BME280;10381;53.730;10.010;2024-03-07T14:45:21;102452.28;;;7.17;100.00
20444;BME280;10381;53.730;10.010;2024-03-07T14:49:21;102443.00;;;6.71;100.00
20444;BME280;10381;53.730;10.010;2024-03-07T14:53:23;102455.41;;;6.69;100.00
20444;BME280;10381;53.730;10.010;2024-03-07T14:57:23;102451.75;;;7.28;100.00
20444;BME280;10381;53.730;10.010;2024-03-07T15:01:23;102430.94;;;6.86;100.00
20444;BME280;10381;53.730;10.010;2024-03-07T15:05:26;102401.00;;;6.49;100.00
20444;BME280;10381;53.730;10.010;2024-03-07T15:09:27;102380.44;;;6.57;100.00
20444;BME280;10381;53.730;10.010;2024-03-07T15:13:30;102366.69;;;6.88;100.00
20444;BME280;10381;53.730;10.010;2024-03-07T15:17:30;102364.13;;;6.68;100.00
20444;BME280;10381;53.730;10.010;2024-03-07T15:21:31;102358.78;;;6.31;100.00
20444;BME280;10381;53.730;10.010;2024-03-07T15:25:32;102354.81;;;6.02;100.00
20444;BME280;10381;53.730;10.010;2024-03-07T15:29:33;102333.69;;;5.83;100.00
20444;BME280;10381;53.730;10.010;2024-03-07T15:33:34;102329.47;;;5.79;100.00
20444;BME280;10381;53.730;10.010;2024-03-07T15:37:36;102327.00;;;5.76;100.00
20444;BME280;10381;53.730;10.010;2024-03-07T15:41:37;102323.44;;;5.77;100.00
20444;BME280;10381;53.730;10.010;2024-03-07T15:45:38;102318.41;;;5.72;100.00
20444;BME280;10381;53.730;10.010;2024-03-07T15:49:39;102307.16;;;5.69;100.00
20444;BME280;10381;53.730;10.010;2024-03-07T15:53:41;102297.31;;;5.53;100.00
20444;BME280;10381;53.730;10.010;2024-03-07T15:57:45;102302.75;;;5.49;100.00
20444;BME280;10381;53.730;10.010;2024-03-07T16:01:46;102299.53;;;5.42;100.00
20444;BME280;10381;53.730;10.010;2024-03-07T16:05:47;102301.69;;;5.32;100.00
20444;BME280;10381;53.730;10.010;2024-03-07T16:09:48;102302.59;;;5.31;100.00
20444;BME280;10381;53.730;10.010;2024-03-07T16:13:48;102294.25;;;5.22;100.00
20444;BME280;10381;53.730;10.010;2024-03-07T16:17:49;102283.72;;;5.22;100.00
20444;BME280;10381;53.730;10.010;2024-03-07T16:21:50;102281.44;;;5.14;100.00
20444;BME280;10381;53.730;10.010;2024-03-07T16:25:50;102277.44;;;5.05;100.00
20444;BME280;10381;53.730;10.010;2024-03-07T16:29:51;102264.00;;;4.91;100.00
20444;BME280;10381;53.730;10.010;2024-03-07T16:33:51;102270.84;;;4.73;100.00
20444;BME280;10381;53.730;10.010;2024-03-07T16:37:52;102268.66;;;4.62;100.00
20444;BME280;10381;53.730;10.010;2024-03-07T16:41:53;102265.47;;;4.54;100.00
20444;BME280;10381;53.730;10.010;2024-03-07T16:45:53;102255.22;;;4.48;100.00
20444;BME280;10381;53.730;10.010;2024-03-07T16:49:54;102257.41;;;4.37;100.00
20444;BME280;10381;53.730;10.010;2024-03-07T16:53:55;102251.69;;;4.25;100.00
20444;BME280;10381;53.730;10.010;2024-03-07T16:57:56;102252.84;;;4.18;100.00
20444;BME280;10381;53.730;10.010;2024-03-07T17:02:11;102255.03;;;4.07;100.00
20444;BME280;10381;53.730;10.010;2024-03-07T17:06:12;102257.31;;;3.93;100.00
20444;BME280;10381;53.730;10.010;2024-03-07T17:10:12;102260.28;;;3.83;100.00
20444;BME280;10381;53.730;10.010;2024-03-07T17:14:15;102260.41;;;3.80;100.00
20444;BME280;10381;53.730;10.010;2024-03-07T17:18:16;102270.59;;;3.63;100.00
20444;BME280;10381;53.730;10.010;2024-03-07T17:22:16;102258.22;;;3.43;100.00
20444;BME280;10381;53.730;10.010;2024-03-07T17:26:18;102238.69;;;3.27;100.00
20444;BME280;10381;53.730;10.010;2024-03-07T17:30:23;102234.34;;;3.27;100.00
20444;BME280;10381;53.730;10.010;2024-03-07T17:34:24;102229.09;;;3.27;100.00
20444;BME280;10381;53.730;10.010;2024-03-07T17:38:25;102224.84;;;3.23;100.00
20444;BME280;10381;53.730;10.010;2024-03-07T17:42:27;102222.72;;;3.09;100.00
20444;BME280;10381;53.730;10.010;2024-03-07T17:46:27;102221.47;;;2.94;100.00
20444;BME280;10381;53.730;10.010;2024-03-07T17:50:28;102214.06;;;2.81;100.00
20444;BME280;10381;53.730;10.010;2024-03-07T17:54:30;102206.50;;;2.71;100.00
20444;BME280;10381;53.730;10.010;2024-03-07T17:58:31;102202.84;;;2.77;100.00
20444;BME280;10381;53.730;10.010;2024-03-07T18:02:32;102190.91;;;2.68;100.00
20444;BME280;10381;53.730;10.010;2024-03-07T18:06:33;102180.56;;;2.65;100.00
20444;BME280;10381;53.730;10.010;2024-03-07T18:10:33;102161.16;;;2.71;100.00
20444;BME280;10381;53.730;10.010;2024-03-07T18:14:36;102170.56;;;2.50;100.00
20444;BME280;10381;53.730;10.010;2024-03-07T18:18:38;102163.69;;;2.47;100.00
20444;BME280;10381;53.730;10.010;2024-03-07T18:22:39;102147.25;;;2.44;100.00
20444;BME280;10381;53.730;10.010;2024-03-07T18:26:39;102142.97;;;2.41;100.00
20444;BME280;10381;53.730;10.010;2024-03-07T18:30:41;102138.19;;;2.27;100.00
20444;BME280;10381;53.730;10.010;2024-03-07T18:34:41;102119.66;;;2.07;100.00
20444;BME280;10381;53.730;10.010;2024-03-07T18:38:41;102111.16;;;2.00;100.00
20444;BME280;10381;53.730;10.010;2024-03-07T18:42:43;102098.78;;;2.05;100.00
20444;BME280;10381;53.730;10.010;2024-03-07T18:46:44;102092.56;;;2.09;100.00
20444;BME280;10381;53.730;10.010;2024-03-07T18:50:46;102085.06;;;1.99;100.00
20444;BME280;10381;53.730;10.010;2024-03-07T18:54:47;102083.44;;;1.95;100.00
20444;BME280;10381;53.730;10.010;2024-03-07T18:58:47;102076.47;;;1.95;100.00
20444;BME280;10381;53.730;10.010;2024-03-07T19:02:50;102057.63;;;1.85;100.00
20444;BME280;10381;53.730;10.010;2024-03-07T19:06:50;102044.00;;;1.76;100.00
20444;BME280;10381;53.730;10.010;2024-03-07T19:10:57;102038.94;;;1.69;100.00
20444;BME280;10381;53.730;10.010;2024-03-07T19:14:58;102013.78;;;1.67;100.00
20444;BME280;10381;53.730;10.010;2024-03-07T19:18:58;102019.13;;;1.62;100.00
20444;BME280;10381;53.730;10.010;2024-03-07T19:23:00;102002.69;;;1.59;100.00
20444;BME280;10381;53.730;10.010;2024-03-07T19:27:03;101991.59;;;1.52;100.00
20444;BME280;10381;53.730;10.010;2024-03-07T19:31:09;101984.16;;;1.40;100.00
20444;BME280;10381;53.730;10.010;2024-03-07T19:35:10;101976.44;;;1.35;100.00
20444;BME280;10381;53.730;10.010;2024-03-07T19:39:16;101964.34;;;1.33;100.00
20444;BME280;10381;53.730;10.010;2024-03-07T19:43:20;101955.97;;;1.21;100.00
20444;BME280;10381;53.730;10.010;2024-03-07T19:47:23;101952.66;;;1.16;100.00
20444;BME280;10381;53.730;10.010;2024-03-07T19:51:23;101935.28;;;1.15;100.00
20444;BME280;10381;53.730;10.010;2024-03-07T19:55:25;101926.00;;;1.06;100.00
20444;BME280;10381;53.730;10.010;2024-03-07T19:59:25;101917.13;;;1.11;100.00
20444;BME280;10381;53.730;10.010;2024-03-07T20:03:26;101910.13;;;1.13;100.00
20444;BME280;10381;53.730;10.010;2024-03-07T20:07:26;101901.47;;;1.11;100.00
20444;BME280;10381;53.730;10.010;2024-03-07T20:11:33;101888.97;;;1.22;100.00
20444;BME280;10381;53.730;10.010;2024-03-07T20:15:34;101891.63;;;1.20;100.00
20444;BME280;10381;53.730;10.010;2024-03-07T20:19:34;101879.97;;;1.04;100.00
20444;BME280;10381;53.730;10.010;2024-03-07T20:23:34;101879.81;;;1.09;100.00
20444;BME280;10381;53.730;10.010;2024-03-07T20:27:35;101872.84;;;1.09;100.00
20444;BME280;10381;53.730;10.010;2024-03-07T20:31:35;101859.09;;;1.04;100.00
20444;BME280;10381;53.730;10.010;2024-03-07T20:35:37;101860.03;;;1.01;100.00
20444;BME280;10381;53.730;10.010;2024-03-07T20:39:38;101851.13;;;1.09;100.00
20444;BME280;10381;53.730;10.010;2024-03-07T20:43:38;101853.66;;;1.10;100.00
20444;BME280;10381;53.730;10.010;2024-03-07T20:47:41;101851.03;;;1.10;100.00
20444;BME280;10381;53.730;10.010;2024-03-07T20:51:42;101851.16;;;1.07;100.00
20444;BME280;10381;53.730;10.010;2024-03-07T20:55:43;101852.81;;;1.10;100.00
20444;BME280;10381;53.730;10.010;2024-03-07T20:59:43;101858.13;;;1.06;100.00
20444;BME280;10381;53.730;10.010;2024-03-07T21:03:44;101851.16;;;1.07;100.00